Terminal Aerodrome Forecast
Issued by NWS

Home | Current Version | Previous Version | Text Only | Print | Product List | Glossary On
Versions: 1 2 3 4 5 6 7 8 9 10 11 12 13 14 15 16 17 18
000
FTAK31 PAJN 282329
TAFASI
TAF
PASI 282329Z 2900/2924 24006KT P6SM VCTS BKN080CB
     FM290600 VRB03KT P6SM SCT060 BKN100
     FM291600 21004KT P6SM SCT060 BKN100=

USA.gov is the U.S. government's official web portal to all federal, state and local government web resources and services.